KBUR/BUR METAR and TAF weather

Enter ICAO airport designator
Station Type Date Time Source
KBUR METAR 2021/10/22 17:53 UTC NOAA

KBUR 221753Z VRB03KT 7SM CLR 17/09 A3003 RMK AO2 SLP160 T01670094 10167 20106 58001 $


Station Type Date Time Source
KBUR Decoded METAR 2021/10/22 17:53 UTC NOAA

BURBANK-GLENDALE-PASADENA, CA, United States (KBUR) 34-12N 118-22W 217M
Oct 22, 2021 - 01:53 PM EDT / 2021.10.22 1753 UTC
Wind: Variable at 3 MPH (3 KT):0
Visibility: 7 mile(s):0
Sky conditions: clear
Temperature: 62.1 F (16.7 C)
Dew Point: 48.9 F (9.4 C)
Relative Humidity: 62%
Pressure (altimeter): 30.03 in. Hg (1016 hPa)
Pressure tendency: 0.00 inches (0.1 hPa) lower than three hours ago
ob: KBUR 221753Z VRB03KT 7SM CLR 17/09 A3003 RMK AO2 SLP160 T01670094 10167 20106 58001
cycle: 18

Station Type Date Time Source
KBUR TAF 2021/10/22 18:58 UTC NOAA

TAF KBUR 221756Z 2218/2318 VRB03KT 4SM HZ SCT005 SCT250
FM222100 17008KT P6SM SCT250
FM230200 VRB03KT P6SM SCT250
FM231200 VRB03KT 2SM BR OVC005
FM231600 VRB03KT 5SM HZ SCT250

Example: see airport list